Terminal Aerodrome Forecast
Issued by NWS Cleveland, OH

Home | Current Version | Previous Version | Graphics & Text | Print | Product List | Glossary On
Versions: 1 2 3 4 5 6 7 8 9 10 11 12 13 14 15 16
000
FTUS41 KCLE 160500
TAFCAK
TAF
KCAK 160540Z 1606/1706 09010KT P6SM BKN200
     FM161700 17014KT 6SM -SHRA BKN060 OVC100
     FM162000 18012KT 6SM -SHRA OVC025
     FM162200 18010KT P6SM BKN014 OVC030=

USA.gov is the U.S. government's official web portal to all federal, state and local government web resources and services.